Date,TemperatureHighF,TemperatureAvgF,TemperatureLowF,DewpointHighF,DewpointAvgF,DewpointLowF,HumidityHigh,HumidityAvg,HumidityLow,PressureMaxIn,PressureMinIn,WindSpeedMaxMPH,WindSpeedAvgMPH,GustSpeedMaxMPH,PrecipitationSumIn
2013-4-3,73.0,73.0,73.0,68.0,68.0,68.0,83,83,83,29.99,29.99,14,14,0,0.00
2013-4-5,75.0,75.0,75.0,70.0,70.0,70.0,83,83,83,29.99,29.99,20,20,0,0.00
2013-4-6,74.0,74.0,74.0,67.0,67.0,67.0,80,80,80,30.10,30.10,20,20,0,0.00
2013-4-7,76.0,74.6,74.0,71.0,70.0,69.0,88,84,79,30.07,29.97,29,26,0,0.00
2013-4-8,74.0,74.0,74.0,68.0,68.0,68.0,82,82,82,30.03,30.03,25,25,0,0.00
2013-4-10,77.0,77.0,77.0,71.0,71.0,71.0,81,81,81,29.93,29.93,17,17,0,0.00
2013-4-11,79.0,79.0,79.0,75.0,75.0,75.0,87,87,87,29.88,29.88,21,21,0,0.00
2013-4-13,79.0,79.0,79.0,75.0,75.0,75.0,88,88,88,29.88,29.88,14,14,0,0.00
2013-4-14,77.0,77.0,77.0,73.0,73.0,73.0,87,87,87,29.88,29.88,15,15,0,0.00
2013-4-16,78.0,78.0,78.0,76.0,76.0,76.0,95,94,93,29.92,29.84,21,20,0,0.00
2013-4-17,79.0,79.0,79.0,78.0,78.0,78.0,95,95,95,29.88,29.88,17,17,0,0.00
2013-4-18,86.0,85.7,85.0,76.0,75.4,74.0,71,71,70,29.97,29.88,16,15,0,0.00
2013-4-19,76.0,76.0,76.0,67.0,67.0,67.0,74,74,74,29.93,29.93,11,11,0,0.00
2013-4-20,85.0,80.5,76.0,72.0,69.5,67.0,74,70,67,29.94,29.93,11,6,0,0.00
2013-4-21,82.0,82.0,82.0,72.0,72.0,72.0,73,73,73,29.97,29.97,9,9,0,0.00
2013-4-22,79.0,79.0,79.0,74.0,74.0,74.0,84,84,84,29.99,29.99,10,10,0,0.00
2013-4-23,83.0,83.0,83.0,75.0,75.0,75.0,77,77,77,29.93,29.93,14,14,0,0.00
2013-4-24,78.0,78.0,78.0,74.0,74.0,74.0,86,86,86,29.93,29.93,16,16,0,0.00
2013-4-25,81.0,79.5,78.0,76.0,75.5,75.0,89,86,83,29.96,29.93,20,18,0,0.00
2013-4-26,78.0,78.0,78.0,75.0,75.0,75.0,89,89,89,29.96,29.96,15,15,0,0.00
2013-4-27,85.0,81.0,77.0,79.0,77.5,76.0,95,88,81,29.96,29.96,13,11,0,0.00
2013-4-28,81.0,81.0,81.0,77.0,77.0,77.0,87,87,87,29.93,29.93,13,13,0,0.00
2013-4-30,79.0,79.0,79.0,75.0,75.0,75.0,88,88,88,29.92,29.92,11,11,0,0.00
2013-5-1,84.0,81.8,79.0,75.0,74.1,73.0,83,77,73,29.91,29.90,15,12,0,0.00
2013-5-2,80.0,80.0,80.0,72.0,72.0,72.0,75,75,75,29.96,29.96,11,11,0,0.00
2013-5-3,78.0,78.0,78.0,73.0,73.0,73.0,86,86,86,29.96,29.96,14,14,0,0.00
2013-5-4,77.0,77.0,77.0,73.0,73.0,73.0,87,87,87,29.95,29.95,11,11,0,0.00
2013-5-6,76.0,76.0,76.0,72.0,72.0,72.0,87,87,87,30.01,30.01,14,14,0,0.00
2013-5-7,77.0,76.5,76.0,72.0,71.5,71.0,87,84,81,30.01,29.94,16,15,0,0.00
2013-5-8,75.0,75.0,75.0,72.0,72.0,72.0,89,89,89,30.00,30.00,20,20,0,0.00
2013-5-9,81.0,81.0,81.0,71.0,71.0,71.0,71,71,71,30.08,30.08,18,18,0,0.00
2013-5-10,81.0,81.0,81.0,73.0,73.0,73.0,77,77,77,30.03,30.03,18,18,0,0.00
2013-5-11,76.0,76.0,76.0,71.0,71.0,71.0,84,84,84,30.02,30.02,14,14,0,0.00
2013-7-10,58.0,58.0,58.0,58.0,58.0,58.0,100,100,100,30.59,30.59,6,6,0,0.00
2013-7-16,65.0,65.0,65.0,61.0,61.0,61.0,88,88,88,30.34,30.34,14,14,0,0.00
2013-7-17,72.0,72.0,72.0,60.0,60.0,60.0,64,64,64,30.34,30.34,17,17,0,0.00
2013-7-18,62.0,62.0,62.0,55.0,55.0,55.0,76,76,76,30.23,30.23,12,12,0,0.00
2013-7-29,64.0,64.0,64.0,61.0,61.0,61.0,88,88,88,30.06,30.06,6,6,0,0.00
2013-8-10,59.0,57.9,57.0,56.0,54.9,54.0,89,89,89,30.03,29.96,22,21,0,0.00
2013-8-11,57.0,57.0,57.0,54.0,54.0,54.0,89,89,89,30.03,30.03,21,21,0,0.00
2013-8-16,62.0,62.0,62.0,57.0,57.0,57.0,83,83,83,29.90,29.90,14,14,0,0.00
2013-8-17,62.0,60.5,59.0,60.0,56.5,53.0,92,86,80,29.81,29.80,28,24,0,0.00
2013-8-18,59.0,58.0,57.0,50.0,50.0,50.0,77,74,71,29.82,29.74,29,25,0,0.00
2013-8-19,60.0,60.0,60.0,52.0,52.0,52.0,74,74,74,29.83,29.83,23,23,0,0.00
2013-8-20,61.0,59.1,56.0,55.0,54.2,53.0,89,84,81,30.08,30.06,17,15,0,0.00
2013-8-21,59.0,59.0,59.0,49.0,49.0,49.0,68,68,68,30.06,30.06,11,11,0,0.00
2013-8-22,63.0,63.0,63.0,55.0,55.0,55.0,76,76,76,30.10,30.10,14,14,0,0.00
2013-8-23,68.0,68.0,68.0,60.0,60.0,60.0,74,74,74,30.13,30.13,2,2,0,0.00
2013-8-24,73.0,73.0,73.0,55.0,55.0,55.0,52,52,52,30.13,30.13,14,14,0,0.00